createdAt,value
2022-08-24T00:02:06.402Z,101019.09
2022-08-24T00:04:35.960Z,101021.59
2022-08-24T00:07:05.978Z,101018.78
2022-08-24T00:09:43.105Z,101027.94
2022-08-24T00:12:20.905Z,101021.69
2022-08-24T00:14:49.986Z,101020.91
2022-08-24T00:17:20.601Z,101024.56
2022-08-24T00:19:49.663Z,101035.50
2022-08-24T00:22:18.913Z,101027.72
2022-08-24T00:24:47.901Z,101025.47
2022-08-24T00:27:16.807Z,101030.22
2022-08-24T00:29:47.114Z,101033.84
2022-08-24T00:32:16.084Z,101038.38
2022-08-24T00:34:58.743Z,101040.13
2022-08-24T00:37:30.004Z,101036.66
2022-08-24T00:39:59.675Z,101031.63
2022-08-24T00:42:28.727Z,101026.59
2022-08-24T00:44:59.823Z,101033.97
2022-08-24T00:47:41.052Z,101032.22
2022-08-24T00:50:23.293Z,100871.19
2022-08-24T00:52:58.048Z,101031.28
2022-08-24T00:55:34.066Z,101035.78
2022-08-24T00:58:17.052Z,101037.78
2022-08-24T01:00:56.378Z,101038.25
2022-08-24T01:03:26.672Z,101037.63
2022-08-24T01:05:56.394Z,101040.41
2022-08-24T01:08:26.268Z,101015.16
2022-08-24T01:11:02.195Z,100985.47
2022-08-24T01:13:34.920Z,101035.03
2022-08-24T01:16:09.465Z,101040.41
2022-08-24T01:18:52.246Z,101038.72
2022-08-24T01:21:33.160Z,101043.34
2022-08-24T01:24:11.283Z,100998.94
2022-08-24T01:26:47.149Z,101004.53
2022-08-24T01:29:23.444Z,101036.25
2022-08-24T01:31:53.849Z,101032.09
2022-08-24T01:34:22.865Z,101030.59
2022-08-24T01:36:56.230Z,101039.66
2022-08-24T01:39:31.739Z,100976.97
2022-08-24T01:42:02.368Z,101034.56
2022-08-24T01:44:35.274Z,101028.34
2022-08-24T01:47:09.823Z,100896.22
2022-08-24T01:49:44.212Z,100876.41
2022-08-24T01:52:17.327Z,101028.91
2022-08-24T01:54:47.672Z,101032.50
2022-08-24T01:57:19.607Z,101037.03
2022-08-24T01:59:48.670Z,101033.44
2022-08-24T02:02:23.374Z,101025.47
2022-08-24T02:04:52.456Z,101040.41
2022-08-24T02:07:21.498Z,101037.53
2022-08-24T02:09:53.322Z,101026.97
2022-08-24T02:12:22.735Z,101033.06
2022-08-24T02:14:52.002Z,101033.94
2022-08-24T02:17:22.828Z,101034.81
2022-08-24T02:19:58.990Z,101035.78
2022-08-24T02:22:28.372Z,101042.13
2022-08-24T02:24:58.769Z,101034.31
2022-08-24T02:27:27.856Z,101029.19
2022-08-24T02:29:57.678Z,101033.88
2022-08-24T02:32:26.750Z,101037.56
2022-08-24T02:34:55.669Z,101037.63
2022-08-24T02:37:24.615Z,101039.13
2022-08-24T02:39:53.751Z,101038.09
2022-08-24T02:42:26.190Z,101037.03
2022-08-24T02:44:55.683Z,101037.03
2022-08-24T02:47:38.028Z,101040.78
2022-08-24T02:50:09.438Z,101039.13
2022-08-24T02:52:39.516Z,101037.56
2022-08-24T02:55:15.103Z,101040.31
2022-08-24T02:57:45.660Z,101048.31
2022-08-24T03:00:19.371Z,101047.44
2022-08-24T03:02:55.520Z,101040.34
2022-08-24T03:05:26.073Z,101037.56
2022-08-24T03:07:55.709Z,101037.69
2022-08-24T03:10:25.013Z,101046.69
2022-08-24T03:12:58.863Z,101044.16
2022-08-24T03:15:28.280Z,101041.53
2022-08-24T03:17:58.432Z,101056.69
2022-08-24T03:20:28.624Z,101044.34
2022-08-24T03:23:00.679Z,101055.19
2022-08-24T03:25:29.839Z,101055.47
2022-08-24T03:28:00.476Z,101061.03
2022-08-24T03:30:30.498Z,101058.50
2022-08-24T03:33:01.254Z,101054.06
2022-08-24T03:35:30.431Z,101063.06
2022-08-24T03:38:00.844Z,101061.44
2022-08-24T03:40:30.217Z,100991.88
2022-08-24T03:43:01.177Z,101066.84
2022-08-24T03:45:31.308Z,101078.34
2022-08-24T03:48:00.682Z,101071.19
2022-08-24T03:50:29.848Z,101069.50
2022-08-24T03:52:59.128Z,101070.66
2022-08-24T03:55:30.937Z,101075.25
2022-08-24T03:58:01.844Z,101076.13
2022-08-24T04:00:30.922Z,101080.50
2022-08-24T04:03:01.203Z,101077.78
2022-08-24T04:05:34.855Z,101080.56
2022-08-24T04:08:06.860Z,101083.31
2022-08-24T04:10:39.447Z,101083.41
2022-08-24T04:13:12.776Z,101080.59
2022-08-24T04:15:44.518Z,101093.81
2022-08-24T04:18:13.836Z,101091.88
2022-08-24T04:20:47.717Z,101095.44
2022-08-24T04:23:21.718Z,101084.75
2022-08-24T04:26:05.576Z,101044.66
2022-08-24T04:28:36.013Z,101096.16
2022-08-24T04:31:07.767Z,101094.28
2022-08-24T04:33:43.937Z,101085.28
2022-08-24T04:36:14.638Z,101060.75
2022-08-24T04:38:46.957Z,101081.38
2022-08-24T04:41:42.247Z,101085.56
2022-08-24T04:44:14.490Z,101088.19
2022-08-24T04:46:44.071Z,101090.78
2022-08-24T04:49:13.444Z,101089.88
2022-08-24T04:51:44.927Z,101086.19
2022-08-24T04:54:14.532Z,101100.31
2022-08-24T04:56:43.890Z,101096.56
2022-08-24T04:59:14.954Z,101108.09
2022-08-24T05:01:45.224Z,101099.09
2022-08-24T05:04:14.947Z,101107.09
2022-08-24T05:06:45.818Z,101111.47
2022-08-24T05:09:17.545Z,101112.31
2022-08-24T05:11:49.717Z,101121.06
2022-08-24T05:14:28.819Z,101118.19
2022-08-24T05:16:59.274Z,101118.13
2022-08-24T05:19:29.288Z,101120.66
2022-08-24T05:21:58.936Z,101121.28
2022-08-24T05:24:28.770Z,101129.88
2022-08-24T05:27:00.622Z,101130.09
2022-08-24T05:29:39.073Z,101133.59
2022-08-24T05:32:08.506Z,101120.94
2022-08-24T05:34:38.245Z,101125.28
2022-08-24T05:37:08.822Z,101126.63
2022-08-24T05:39:53.063Z,101121.47
2022-08-24T05:42:27.826Z,101104.69
2022-08-24T05:44:58.480Z,101123.44
2022-08-24T05:47:27.932Z,101123.75
2022-08-24T05:50:01.439Z,101123.69
2022-08-24T05:52:31.316Z,101128.25
2022-08-24T05:55:01.370Z,101130.94
2022-08-24T05:57:35.645Z,101131.91
2022-08-24T06:00:15.697Z,101133.13
2022-08-24T06:02:53.066Z,101138.47
2022-08-24T06:05:23.720Z,101140.84
2022-08-24T06:07:53.035Z,101138.53
2022-08-24T06:10:37.997Z,101141.59
2022-08-24T06:13:08.733Z,101138.53
2022-08-24T06:15:41.114Z,101146.16
2022-08-24T06:18:10.875Z,101140.81
2022-08-24T06:20:43.888Z,101139.44
2022-08-24T06:23:15.560Z,101145.78
2022-08-24T06:26:13.380Z,101150.84
2022-08-24T06:28:50.120Z,101152.00
2022-08-24T06:31:22.164Z,101150.97
2022-08-24T06:33:55.288Z,101148.53
2022-08-24T06:36:28.991Z,101142.94
2022-08-24T06:39:01.975Z,101149.34
2022-08-24T06:41:31.623Z,101152.69
2022-08-24T06:44:02.015Z,101152.00
2022-08-24T06:46:47.488Z,101154.59
2022-08-24T06:49:16.650Z,101147.97
2022-08-24T06:51:50.598Z,101158.94
2022-08-24T06:54:26.582Z,101159.84
2022-08-24T06:57:00.779Z,101161.66
2022-08-24T06:59:32.474Z,101165.00
2022-08-24T07:02:03.004Z,101178.16
2022-08-24T07:04:32.711Z,101174.88
2022-08-24T07:07:20.454Z,101180.69
2022-08-24T07:09:49.719Z,101177.81
2022-08-24T07:12:18.307Z,101175.97
2022-08-24T07:14:47.301Z,101173.47
2022-08-24T07:17:18.116Z,101185.44
2022-08-24T07:19:48.466Z,101192.84
2022-08-24T07:22:31.296Z,101008.59
2022-08-24T07:25:00.348Z,101192.50
2022-08-24T07:27:29.871Z,101175.22
2022-08-24T07:30:23.250Z,101199.47
2022-08-24T07:32:49.493Z,101205.13
2022-08-24T07:35:18.775Z,101212.53
2022-08-24T07:37:47.804Z,101180.22
2022-08-24T07:40:18.828Z,101201.53
2022-08-24T07:42:52.720Z,101210.09
2022-08-24T07:45:23.640Z,101205.84
2022-08-24T07:47:56.452Z,101187.00
2022-08-24T07:50:47.701Z,101208.63
2022-08-24T07:53:20.831Z,101215.53
2022-08-24T07:55:57.728Z,101187.88
2022-08-24T07:58:27.656Z,101212.03
2022-08-24T08:00:59.188Z,101214.97
2022-08-24T08:03:31.988Z,101226.78
2022-08-24T08:06:04.023Z,101226.22
2022-08-24T08:08:44.666Z,101158.06
2022-08-24T08:18:13.717Z,101235.03
2022-08-24T08:23:48.617Z,101225.59
2022-08-24T08:29:34.782Z,101232.47
2022-08-24T08:32:04.871Z,101234.06
2022-08-24T08:34:34.706Z,101234.44
2022-08-24T08:40:15.401Z,101241.97
2022-08-24T08:43:23.510Z,101238.63
2022-08-24T08:46:18.625Z,101235.44
2022-08-24T08:53:34.289Z,101246.38
2022-08-24T08:56:16.110Z,101259.81
2022-08-24T08:59:04.647Z,101252.06
2022-08-24T09:06:24.146Z,101250.78
2022-08-24T09:13:11.742Z,101244.25
2022-08-24T09:17:19.280Z,101072.69
2022-08-24T09:27:55.996Z,101241.28
2022-08-24T09:32:28.690Z,101246.56
2022-08-24T09:39:08.803Z,100937.34
2022-08-24T09:54:23.950Z,101243.00
2022-08-24T10:01:33.429Z,101092.38
2022-08-24T10:04:19.306Z,101232.00
2022-08-24T10:07:16.046Z,101229.44
2022-08-24T13:52:40.732Z,101073.91
2022-08-24T14:04:19.412Z,101139.88
2022-08-24T14:11:25.374Z,101160.44
2022-08-24T14:43:31.293Z,101163.84
2022-08-24T14:46:59.452Z,101151.44
2022-08-24T14:49:39.209Z,101147.59
2022-08-24T14:52:44.612Z,101107.59
2022-08-24T14:55:30.801Z,101135.38
2022-08-24T14:58:30.465Z,101143.41
2022-08-24T15:01:40.553Z,101128.81
2022-08-24T15:04:37.297Z,101135.00
2022-08-24T15:07:30.653Z,101090.78
2022-08-24T15:10:14.913Z,101130.06
2022-08-24T15:12:52.493Z,101084.13
2022-08-24T15:15:34.136Z,101120.66
2022-08-24T15:18:14.544Z,101076.06
2022-08-24T15:21:06.426Z,101116.44
2022-08-24T15:24:01.370Z,101118.63
2022-08-24T15:26:46.689Z,101039.03
2022-08-24T15:29:22.516Z,101092.06
2022-08-24T15:32:04.061Z,101112.34
2022-08-24T15:34:45.864Z,101112.22
2022-08-24T15:37:16.999Z,101108.34
2022-08-24T15:39:45.857Z,101082.91
2022-08-24T15:42:30.180Z,101070.63
2022-08-24T15:45:05.079Z,101107.25
2022-08-24T15:47:38.243Z,101044.34
2022-08-24T15:50:22.571Z,101101.34
2022-08-24T15:52:56.599Z,101099.06
2022-08-24T15:55:36.815Z,101097.94
2022-08-24T15:58:36.382Z,101099.34
2022-08-24T16:01:40.104Z,101103.31
2022-08-24T16:04:15.781Z,101076.72
2022-08-24T16:06:48.479Z,101102.22
2022-08-24T16:09:36.571Z,101101.19
2022-08-24T16:12:12.698Z,101103.69
2022-08-24T16:14:49.029Z,101080.19
2022-08-24T16:17:36.437Z,100790.56
2022-08-24T16:20:13.200Z,100843.16
2022-08-24T16:23:00.804Z,101078.22
2022-08-24T16:25:34.723Z,101064.50
2022-08-24T16:28:11.531Z,101107.75
2022-08-24T16:30:53.943Z,101102.91
2022-08-24T16:33:45.657Z,101105.63
2022-08-24T16:36:20.555Z,101098.97
2022-08-24T16:38:52.904Z,101104.66
2022-08-24T16:41:25.669Z,101099.13
2022-08-24T16:43:54.932Z,101103.19
2022-08-24T16:46:25.678Z,101097.56
2022-08-24T16:48:55.521Z,101095.63
2022-08-24T16:51:25.524Z,101094.66
2022-08-24T16:53:56.231Z,101089.78
2022-08-24T16:56:25.684Z,101089.63
2022-08-24T16:58:55.175Z,101092.06
2022-08-24T17:01:27.609Z,101096.63
2022-08-24T17:04:06.524Z,101090.34
2022-08-24T17:06:35.812Z,101095.66
2022-08-24T17:09:06.282Z,101098.22
2022-08-24T17:11:38.016Z,101095.91
2022-08-24T17:14:07.109Z,101096.38
2022-08-24T17:16:36.645Z,101098.34
2022-08-24T17:19:12.849Z,101109.66
2022-08-24T17:21:43.582Z,101098.47
2022-08-24T17:24:14.780Z,101105.69
2022-08-24T17:26:50.915Z,101099.28
2022-08-24T17:29:20.891Z,101099.97
2022-08-24T17:31:50.931Z,101109.75
2022-08-24T17:34:21.815Z,101105.00
2022-08-24T17:36:54.309Z,101061.19
2022-08-24T17:39:25.681Z,101118.19
2022-08-24T17:41:55.952Z,101123.28
2022-08-24T17:44:28.772Z,101121.09
2022-08-24T17:47:05.080Z,101119.03
2022-08-24T17:49:35.051Z,101119.44
2022-08-24T17:52:04.455Z,101123.78
2022-08-24T17:54:34.856Z,101122.81
2022-08-24T17:57:04.070Z,101121.38
2022-08-24T17:59:35.524Z,101014.63
2022-08-24T18:02:07.403Z,101119.41
2022-08-24T18:04:37.656Z,101132.28
2022-08-24T18:07:12.047Z,101137.28
2022-08-24T18:09:48.324Z,101131.78
2022-08-24T18:12:20.000Z,101121.00
2022-08-24T18:14:52.656Z,101146.78
2022-08-24T18:17:34.631Z,101133.28
2022-08-24T18:20:12.165Z,101146.81
2022-08-24T18:22:45.047Z,101145.81
2022-08-24T18:25:26.093Z,101139.06
2022-08-24T18:27:58.985Z,101147.66
2022-08-24T18:30:31.022Z,101124.53
2022-08-24T18:33:01.893Z,101143.91
2022-08-24T18:35:32.821Z,101142.84
2022-08-24T18:38:02.196Z,101138.69
2022-08-24T18:40:33.043Z,101152.59
2022-08-24T18:43:05.009Z,101151.25
2022-08-24T18:45:35.985Z,100940.88
2022-08-24T18:48:05.728Z,101147.88
2022-08-24T18:50:36.811Z,101148.16
2022-08-24T18:53:08.793Z,101151.53
2022-08-24T18:59:01.160Z,101155.00
2022-08-24T19:01:53.720Z,101156.41
2022-08-24T19:04:22.934Z,101157.06
2022-08-24T19:06:59.679Z,101164.94
2022-08-24T19:09:34.528Z,101169.03
2022-08-24T19:12:08.010Z,101170.03
2022-08-24T19:14:48.296Z,101099.88
2022-08-24T19:17:17.846Z,101170.47
2022-08-24T19:19:46.940Z,101164.88
2022-08-24T19:22:17.385Z,101120.38
2022-08-24T19:24:47.282Z,101170.53
2022-08-24T19:27:20.253Z,101165.75
2022-08-24T19:29:56.606Z,101161.41
2022-08-24T19:32:31.793Z,101157.78
2022-08-24T19:35:01.251Z,101157.63
2022-08-24T19:37:30.284Z,101163.59
2022-08-24T19:40:00.547Z,101160.47
2022-08-24T19:42:32.215Z,101167.13
2022-08-24T19:45:19.698Z,101161.25
2022-08-24T19:47:48.894Z,101159.91
2022-08-24T19:50:21.314Z,101154.97
2022-08-24T19:52:50.667Z,101164.16
2022-08-24T19:55:19.563Z,101149.13
2022-08-24T19:57:55.899Z,101028.09
2022-08-24T20:00:34.247Z,101155.72
2022-08-24T20:03:06.438Z,101156.16
2022-08-24T20:05:38.485Z,101164.25
2022-08-24T20:08:07.404Z,101161.66
2022-08-24T20:10:36.459Z,101163.25
2022-08-24T20:13:07.259Z,101162.59
2022-08-24T20:15:36.282Z,101159.22
2022-08-24T20:18:05.742Z,101163.75
2022-08-24T20:20:34.844Z,101165.03
2022-08-24T20:23:06.428Z,101168.56
2022-08-24T20:25:37.205Z,101170.38
2022-08-24T20:30:57.557Z,101172.50
2022-08-24T20:33:28.112Z,101174.78
2022-08-24T20:35:57.558Z,101182.22
2022-08-24T20:38:29.329Z,101179.06
2022-08-24T20:41:01.788Z,101172.28
2022-08-24T20:43:31.885Z,101185.25
2022-08-24T20:46:01.483Z,101158.47
2022-08-24T20:48:33.865Z,101184.13
2022-08-24T20:51:03.244Z,101183.56
2022-08-24T20:53:32.252Z,101185.25
2022-08-24T20:56:10.150Z,101181.84
2022-08-24T20:58:41.607Z,101181.91
2022-08-24T21:01:10.796Z,101176.44
2022-08-24T21:03:39.951Z,101181.97
2022-08-24T21:06:20.888Z,101184.78
2022-08-24T21:08:53.367Z,101188.41
2022-08-24T21:11:22.624Z,101184.06
2022-08-24T21:13:52.909Z,101183.19
2022-08-24T21:16:22.144Z,101186.00
2022-08-24T21:18:51.298Z,101181.84
2022-08-24T21:21:20.509Z,101182.09
2022-08-24T21:23:49.514Z,101185.72
2022-08-24T21:26:24.772Z,101182.22
2022-08-24T21:28:58.068Z,101180.84
2022-08-24T21:31:28.784Z,101177.91
2022-08-24T21:34:15.313Z,101178.06
2022-08-24T21:36:44.405Z,101181.56
2022-08-24T21:39:13.241Z,101183.44
2022-08-24T21:41:42.361Z,101190.78
2022-08-24T21:44:15.032Z,101189.41
2022-08-24T21:46:44.437Z,101186.41
2022-08-24T21:49:13.418Z,101193.88
2022-08-24T21:51:45.431Z,101195.63
2022-08-24T21:54:14.649Z,101192.63
2022-08-24T21:56:43.837Z,101189.41
2022-08-24T21:59:14.287Z,101196.41
2022-08-24T22:01:43.785Z,101199.28
2022-08-24T22:04:13.483Z,101194.09
2022-08-24T22:06:42.517Z,101188.72
2022-08-24T22:09:11.600Z,101196.03
2022-08-24T22:11:40.693Z,101196.84
2022-08-24T22:14:11.694Z,101191.16
2022-08-24T22:16:42.495Z,101187.84
2022-08-24T22:19:11.910Z,101180.88
2022-08-24T22:21:47.725Z,101180.81
2022-08-24T22:24:17.227Z,101179.78
2022-08-24T22:26:46.424Z,101178.13
2022-08-24T22:29:15.902Z,101181.19
2022-08-24T22:31:46.729Z,101178.72
2022-08-24T22:34:20.967Z,101142.19
2022-08-24T22:36:51.439Z,101133.47
2022-08-24T22:39:22.763Z,101180.53
2022-08-24T22:41:57.491Z,101174.44
2022-08-24T22:44:27.887Z,101176.25
2022-08-24T22:47:01.902Z,101105.09
2022-08-24T22:49:37.078Z,101177.34
2022-08-24T22:52:07.372Z,101169.53
2022-08-24T22:54:37.042Z,101172.13
2022-08-24T22:57:06.229Z,101170.59
2022-08-24T22:59:41.666Z,101168.88
2022-08-24T23:02:14.930Z,101160.31
2022-08-24T23:04:49.517Z,100935.06
2022-08-24T23:07:21.761Z,101158.88
2022-08-24T23:09:51.240Z,101158.00
2022-08-24T23:12:24.713Z,101155.31
2022-08-24T23:14:54.513Z,101084.00
2022-08-24T23:17:24.920Z,101154.31
2022-08-24T23:20:05.200Z,101157.25
2022-08-24T23:22:41.211Z,101044.94
2022-08-24T23:25:13.866Z,101085.53
2022-08-24T23:27:46.623Z,101149.13
2022-08-24T23:30:18.444Z,101151.22
2022-08-24T23:32:49.259Z,101149.56
2022-08-24T23:35:18.384Z,101146.09
2022-08-24T23:37:47.924Z,101133.16
2022-08-24T23:40:17.401Z,101141.72
2022-08-24T23:42:46.538Z,101149.84
2022-08-24T23:45:15.955Z,101000.69
2022-08-24T23:47:45.064Z,101145.56
2022-08-24T23:50:15.491Z,101143.91
2022-08-24T23:52:44.218Z,101094.66
2022-08-24T23:55:21.313Z,101143.69
2022-08-24T23:57:52.397Z,101099.56
